Oswestry, United Kingdom
Current Conditions -  °F | °C
As of 12:50 PM on Sunday 23 Nov 2014 (Local Time) from EGOS Reporting Station
Few Clouds Few Clouds  
Wind Chill: 45°   Ceiling: Unl
Heat Index: 48°   Visibility: 6mi
Dew Point: 43°   Wind: 8mph
Humidity: 82%   Direction: 290°WNW
Pressure: 30.06"   Gusts: NA
Location:  52.82°N, 3.29°W
Report Text: EGOS 231250Z AUTO 29007KT 9999 FEW029/// 09/06 Q1018
Loading
Personal Weather Stations






























Interactive Weather Map New forecast layout! Learn more

10-Day Weather Forecast

Advertisements
Track Severe Weather on mobile